sensor_id;sensor_type;location;lat;lon;timestamp;temperature;humidity
6752;DHT22;3413;47.680;9.166;2023-08-12T00:02:32;24.90;72.60
6752;DHT22;3413;47.680;9.166;2023-08-12T00:07:34;24.80;73.30
6752;DHT22;3413;47.680;9.166;2023-08-12T00:12:37;24.70;72.70
6752;DHT22;3413;47.680;9.166;2023-08-12T00:17:39;24.70;72.70
6752;DHT22;3413;47.680;9.166;2023-08-12T00:22:43;24.70;72.80
6752;DHT22;3413;47.680;9.166;2023-08-12T00:27:46;24.60;72.80
6752;DHT22;3413;47.680;9.166;2023-08-12T00:32:47;24.50;72.80
6752;DHT22;3413;47.680;9.166;2023-08-12T00:37:49;24.40;72.80
6752;DHT22;3413;47.680;9.166;2023-08-12T00:42:51;24.20;72.80
6752;DHT22;3413;47.680;9.166;2023-08-12T00:47:53;24.10;73.00
6752;DHT22;3413;47.680;9.166;2023-08-12T00:52:55;24.00;73.00
6752;DHT22;3413;47.680;9.166;2023-08-12T00:57:57;24.00;73.10
6752;DHT22;3413;47.680;9.166;2023-08-12T01:03:00;24.00;73.20
6752;DHT22;3413;47.680;9.166;2023-08-12T01:08:03;24.00;73.90
6752;DHT22;3413;47.680;9.166;2023-08-12T01:13:21;24.00;73.20
6752;DHT22;3413;47.680;9.166;2023-08-12T01:18:26;24.00;74.20
6752;DHT22;3413;47.680;9.166;2023-08-12T01:23:29;23.90;73.30
6752;DHT22;3413;47.680;9.166;2023-08-12T01:28:32;23.80;73.20
6752;DHT22;3413;47.680;9.166;2023-08-12T01:33:58;23.80;73.40
6752;DHT22;3413;47.680;9.166;2023-08-12T01:39:02;23.70;73.50
6752;DHT22;3413;47.680;9.166;2023-08-12T01:44:06;23.60;73.40
6752;DHT22;3413;47.680;9.166;2023-08-12T01:49:09;23.60;73.50
6752;DHT22;3413;47.680;9.166;2023-08-12T01:54:11;23.60;73.60
6752;DHT22;3413;47.680;9.166;2023-08-12T01:59:13;23.50;73.60
6752;DHT22;3413;47.680;9.166;2023-08-12T02:04:15;23.50;73.80
6752;DHT22;3413;47.680;9.166;2023-08-12T02:09:17;23.50;73.80
6752;DHT22;3413;47.680;9.166;2023-08-12T02:14:18;23.50;73.90
6752;DHT22;3413;47.680;9.166;2023-08-12T02:19:20;23.50;73.90
6752;DHT22;3413;47.680;9.166;2023-08-12T02:24:22;23.50;74.00
6752;DHT22;3413;47.680;9.166;2023-08-12T02:29:24;23.50;74.00
6752;DHT22;3413;47.680;9.166;2023-08-12T02:34:26;23.50;74.10
6752;DHT22;3413;47.680;9.166;2023-08-12T02:39:28;23.50;74.20
6752;DHT22;3413;47.680;9.166;2023-08-12T02:44:30;23.50;74.20
6752;DHT22;3413;47.680;9.166;2023-08-12T02:49:32;23.60;74.40
6752;DHT22;3413;47.680;9.166;2023-08-12T02:54:34;23.50;74.40
6752;DHT22;3413;47.680;9.166;2023-08-12T02:59:36;23.50;74.40
6752;DHT22;3413;47.680;9.166;2023-08-12T03:04:38;23.50;74.50
6752;DHT22;3413;47.680;9.166;2023-08-12T03:09:40;23.50;74.60
6752;DHT22;3413;47.680;9.166;2023-08-12T03:14:43;23.50;74.60
6752;DHT22;3413;47.680;9.166;2023-08-12T03:19:45;23.50;74.70
6752;DHT22;3413;47.680;9.166;2023-08-12T03:24:48;23.40;74.60
6752;DHT22;3413;47.680;9.166;2023-08-12T03:29:51;23.40;74.80
6752;DHT22;3413;47.680;9.166;2023-08-12T03:34:54;23.40;74.90
6752;DHT22;3413;47.680;9.166;2023-08-12T03:39:57;23.40;74.90
6752;DHT22;3413;47.680;9.166;2023-08-12T03:44:59;23.40;75.00
6752;DHT22;3413;47.680;9.166;2023-08-12T03:50:01;23.50;75.00
6752;DHT22;3413;47.680;9.166;2023-08-12T03:55:04;23.40;75.10
6752;DHT22;3413;47.680;9.166;2023-08-12T04:00:07;23.30;75.10
6752;DHT22;3413;47.680;9.166;2023-08-12T04:05:15;23.30;75.20
6752;DHT22;3413;47.680;9.166;2023-08-12T04:10:17;23.30;75.30
6752;DHT22;3413;47.680;9.166;2023-08-12T04:15:19;23.30;75.40
6752;DHT22;3413;47.680;9.166;2023-08-12T04:20:21;23.30;75.50
6752;DHT22;3413;47.680;9.166;2023-08-12T04:25:24;23.20;75.60
6752;DHT22;3413;47.680;9.166;2023-08-12T04:30:26;23.10;75.60
6752;DHT22;3413;47.680;9.166;2023-08-12T04:35:31;23.10;75.70
6752;DHT22;3413;47.680;9.166;2023-08-12T04:40:38;23.20;75.90
6752;DHT22;3413;47.680;9.166;2023-08-12T04:45:45;23.20;76.00
6752;DHT22;3413;47.680;9.166;2023-08-12T04:50:47;23.20;76.10
6752;DHT22;3413;47.680;9.166;2023-08-12T04:55:51;23.20;76.20
6752;DHT22;3413;47.680;9.166;2023-08-12T05:00:54;23.20;76.30
6752;DHT22;3413;47.680;9.166;2023-08-12T05:05:56;23.10;76.40
6752;DHT22;3413;47.680;9.166;2023-08-12T05:11:01;23.10;76.60
6752;DHT22;3413;47.680;9.166;2023-08-12T05:16:03;23.20;76.70
6752;DHT22;3413;47.680;9.166;2023-08-12T05:21:06;23.20;76.80
6752;DHT22;3413;47.680;9.166;2023-08-12T05:26:08;23.30;77.00
6752;DHT22;3413;47.680;9.166;2023-08-12T05:31:10;23.30;77.00
6752;DHT22;3413;47.680;9.166;2023-08-12T05:36:12;23.40;77.10
6752;DHT22;3413;47.680;9.166;2023-08-12T05:41:14;23.50;77.30
6752;DHT22;3413;47.680;9.166;2023-08-12T05:46:16;23.50;77.40
6752;DHT22;3413;47.680;9.166;2023-08-12T05:51:18;23.50;77.50
6752;DHT22;3413;47.680;9.166;2023-08-12T05:56:20;23.60;77.80
6752;DHT22;3413;47.680;9.166;2023-08-12T06:01:22;23.70;78.00
6752;DHT22;3413;47.680;9.166;2023-08-12T06:06:24;23.80;78.00
6752;DHT22;3413;47.680;9.166;2023-08-12T06:11:26;23.90;78.20
6752;DHT22;3413;47.680;9.166;2023-08-12T06:16:28;23.90;78.20
6752;DHT22;3413;47.680;9.166;2023-08-12T06:21:29;24.00;78.50
6752;DHT22;3413;47.680;9.166;2023-08-12T06:26:31;24.10;78.50
6752;DHT22;3413;47.680;9.166;2023-08-12T06:31:34;24.20;78.70
6752;DHT22;3413;47.680;9.166;2023-08-12T06:36:36;24.20;78.80
6752;DHT22;3413;47.680;9.166;2023-08-12T06:41:38;24.30;78.90
6752;DHT22;3413;47.680;9.166;2023-08-12T06:46:40;24.40;79.10
6752;DHT22;3413;47.680;9.166;2023-08-12T06:51:42;24.50;79.20
6752;DHT22;3413;47.680;9.166;2023-08-12T06:56:44;24.60;79.30
6752;DHT22;3413;47.680;9.166;2023-08-12T07:01:46;24.70;79.50
6752;DHT22;3413;47.680;9.166;2023-08-12T07:06:48;24.80;79.60
6752;DHT22;3413;47.680;9.166;2023-08-12T07:11:50;24.90;79.50
6752;DHT22;3413;47.680;9.166;2023-08-12T07:16:52;25.10;79.40
6752;DHT22;3413;47.680;9.166;2023-08-12T07:21:54;25.20;79.40
6752;DHT22;3413;47.680;9.166;2023-08-12T07:26:56;25.20;79.40
6752;DHT22;3413;47.680;9.166;2023-08-12T07:31:58;25.30;79.60
6752;DHT22;3413;47.680;9.166;2023-08-12T07:36:59;25.50;79.70
6752;DHT22;3413;47.680;9.166;2023-08-12T07:42:01;25.60;79.70
6752;DHT22;3413;47.680;9.166;2023-08-12T07:47:03;25.90;79.80
6752;DHT22;3413;47.680;9.166;2023-08-12T07:52:06;26.00;79.80
6752;DHT22;3413;47.680;9.166;2023-08-12T07:57:07;26.20;79.80
6752;DHT22;3413;47.680;9.166;2023-08-12T08:02:09;26.40;79.70
6752;DHT22;3413;47.680;9.166;2023-08-12T08:07:12;26.70;79.80
6752;DHT22;3413;47.680;9.166;2023-08-12T08:12:14;27.00;80.00
6752;DHT22;3413;47.680;9.166;2023-08-12T08:17:16;27.30;80.10
6752;DHT22;3413;47.680;9.166;2023-08-12T08:22:18;27.50;80.10
6752;DHT22;3413;47.680;9.166;2023-08-12T08:27:20;27.80;80.00
6752;DHT22;3413;47.680;9.166;2023-08-12T08:32:23;28.00;79.80
6752;DHT22;3413;47.680;9.166;2023-08-12T08:37:24;28.00;79.80
6752;DHT22;3413;47.680;9.166;2023-08-12T08:42:27;28.20;79.70
6752;DHT22;3413;47.680;9.166;2023-08-12T08:47:29;28.30;79.80
6752;DHT22;3413;47.680;9.166;2023-08-12T08:52:32;28.40;79.60
6752;DHT22;3413;47.680;9.166;2023-08-12T08:57:35;28.40;79.60
6752;DHT22;3413;47.680;9.166;2023-08-12T09:02:49;28.40;79.80
6752;DHT22;3413;47.680;9.166;2023-08-12T09:07:54;28.40;79.80
6752;DHT22;3413;47.680;9.166;2023-08-12T09:12:56;28.50;79.70
6752;DHT22;3413;47.680;9.166;2023-08-12T09:17:58;28.50;79.80
6752;DHT22;3413;47.680;9.166;2023-08-12T09:23:01;28.40;80.10
6752;DHT22;3413;47.680;9.166;2023-08-12T09:28:04;28.50;80.20
6752;DHT22;3413;47.680;9.166;2023-08-12T09:33:08;28.50;80.10
6752;DHT22;3413;47.680;9.166;2023-08-12T09:38:13;28.60;80.00
6752;DHT22;3413;47.680;9.166;2023-08-12T09:43:15;28.70;80.00
6752;DHT22;3413;47.680;9.166;2023-08-12T09:48:18;28.80;79.80
6752;DHT22;3413;47.680;9.166;2023-08-12T09:53:24;28.90;80.00
6752;DHT22;3413;47.680;9.166;2023-08-12T09:58:29;29.10;80.10
6752;DHT22;3413;47.680;9.166;2023-08-12T10:03:33;29.40;80.30
6752;DHT22;3413;47.680;9.166;2023-08-12T10:08:36;29.70;80.40
6752;DHT22;3413;47.680;9.166;2023-08-12T10:13:40;30.10;80.40
6752;DHT22;3413;47.680;9.166;2023-08-12T10:18:42;30.50;80.50
6752;DHT22;3413;47.680;9.166;2023-08-12T10:23:45;30.70;80.50
6752;DHT22;3413;47.680;9.166;2023-08-12T10:28:49;30.80;80.30
6752;DHT22;3413;47.680;9.166;2023-08-12T10:33:53;30.80;80.30
6752;DHT22;3413;47.680;9.166;2023-08-12T10:38:56;30.90;80.10
6752;DHT22;3413;47.680;9.166;2023-08-12T10:44:03;30.90;80.20
6752;DHT22;3413;47.680;9.166;2023-08-12T10:49:08;30.70;81.00
6752;DHT22;3413;47.680;9.166;2023-08-12T10:54:21;30.60;80.40
6752;DHT22;3413;47.680;9.166;2023-08-12T11:04:56;30.50;80.20
6752;DHT22;3413;47.680;9.166;2023-08-12T11:10:01;30.50;80.30
6752;DHT22;3413;47.680;9.166;2023-08-12T11:15:06;30.50;80.30
6752;DHT22;3413;47.680;9.166;2023-08-12T11:20:10;30.40;80.20
6752;DHT22;3413;47.680;9.166;2023-08-12T11:25:13;30.40;80.30
6752;DHT22;3413;47.680;9.166;2023-08-12T11:30:18;30.30;80.40
6752;DHT22;3413;47.680;9.166;2023-08-12T11:35:22;30.40;80.30
6752;DHT22;3413;47.680;9.166;2023-08-12T11:40:25;30.50;80.20
6752;DHT22;3413;47.680;9.166;2023-08-12T11:45:28;30.50;80.10
6752;DHT22;3413;47.680;9.166;2023-08-12T11:50:30;30.50;80.30
6752;DHT22;3413;47.680;9.166;2023-08-12T11:55:32;30.60;81.00
6752;DHT22;3413;47.680;9.166;2023-08-12T12:00:34;30.60;80.30
6752;DHT22;3413;47.680;9.166;2023-08-12T12:05:36;30.60;80.30
6752;DHT22;3413;47.680;9.166;2023-08-12T12:10:38;30.70;80.50
6752;DHT22;3413;47.680;9.166;2023-08-12T12:15:43;30.80;80.50
6752;DHT22;3413;47.680;9.166;2023-08-12T12:20:58;30.70;80.40
6752;DHT22;3413;47.680;9.166;2023-08-12T12:26:02;30.70;80.50
6752;DHT22;3413;47.680;9.166;2023-08-12T12:31:04;30.70;80.50
6752;DHT22;3413;47.680;9.166;2023-08-12T12:36:06;30.60;80.30
6752;DHT22;3413;47.680;9.166;2023-08-12T12:41:09;30.60;80.20
6752;DHT22;3413;47.680;9.166;2023-08-12T12:46:11;30.80;80.20
6752;DHT22;3413;47.680;9.166;2023-08-12T12:51:13;30.80;80.30
6752;DHT22;3413;47.680;9.166;2023-08-12T12:56:15;30.70;80.40
6752;DHT22;3413;47.680;9.166;2023-08-12T13:01:17;30.70;80.60
6752;DHT22;3413;47.680;9.166;2023-08-12T13:06:19;30.60;80.70
6752;DHT22;3413;47.680;9.166;2023-08-12T13:11:21;30.60;81.00
6752;DHT22;3413;47.680;9.166;2023-08-12T13:16:23;30.60;81.20
6752;DHT22;3413;47.680;9.166;2023-08-12T13:21:26;30.70;81.10
6752;DHT22;3413;47.680;9.166;2023-08-12T13:26:28;31.00;80.90
6752;DHT22;3413;47.680;9.166;2023-08-12T13:31:30;31.20;80.80
6752;DHT22;3413;47.680;9.166;2023-08-12T13:36:32;31.40;80.60
6752;DHT22;3413;47.680;9.166;2023-08-12T13:41:36;31.60;80.30
6752;DHT22;3413;47.680;9.166;2023-08-12T13:46:38;31.80;80.00
6752;DHT22;3413;47.680;9.166;2023-08-12T13:51:40;32.00;79.90
6752;DHT22;3413;47.680;9.166;2023-08-12T13:56:42;32.20;79.90
6752;DHT22;3413;47.680;9.166;2023-08-12T14:01:44;32.40;80.00
6752;DHT22;3413;47.680;9.166;2023-08-12T14:06:46;32.70;80.10
6752;DHT22;3413;47.680;9.166;2023-08-12T14:11:48;32.90;79.90
6752;DHT22;3413;47.680;9.166;2023-08-12T14:16:50;33.20;80.00
6752;DHT22;3413;47.680;9.166;2023-08-12T14:21:52;33.40;79.70
6752;DHT22;3413;47.680;9.166;2023-08-12T14:26:54;33.50;79.50
6752;DHT22;3413;47.680;9.166;2023-08-12T14:31:56;33.50;79.30
6752;DHT22;3413;47.680;9.166;2023-08-12T14:36:58;33.30;79.20
6752;DHT22;3413;47.680;9.166;2023-08-12T14:42:01;33.30;79.20
6752;DHT22;3413;47.680;9.166;2023-08-12T14:47:04;33.20;79.30
6752;DHT22;3413;47.680;9.166;2023-08-12T14:52:18;33.10;79.50
6752;DHT22;3413;47.680;9.166;2023-08-12T14:57:21;33.10;79.50
6752;DHT22;3413;47.680;9.166;2023-08-12T15:02:23;33.10;79.70
6752;DHT22;3413;47.680;9.166;2023-08-12T15:07:25;33.30;79.80
6752;DHT22;3413;47.680;9.166;2023-08-12T15:12:27;33.40;79.70
6752;DHT22;3413;47.680;9.166;2023-08-12T15:17:29;33.50;79.60
6752;DHT22;3413;47.680;9.166;2023-08-12T15:22:31;33.50;79.50
6752;DHT22;3413;47.680;9.166;2023-08-12T15:27:33;33.40;79.50
6752;DHT22;3413;47.680;9.166;2023-08-12T15:32:36;33.30;79.30
6752;DHT22;3413;47.680;9.166;2023-08-12T15:37:43;33.20;79.30
6752;DHT22;3413;47.680;9.166;2023-08-12T15:42:44;33.20;79.30
6752;DHT22;3413;47.680;9.166;2023-08-12T15:47:48;33.20;79.30
6752;DHT22;3413;47.680;9.166;2023-08-12T15:52:51;33.10;79.20
6752;DHT22;3413;47.680;9.166;2023-08-12T15:57:53;33.00;79.20
6752;DHT22;3413;47.680;9.166;2023-08-12T16:02:55;32.80;79.20
6752;DHT22;3413;47.680;9.166;2023-08-12T16:07:57;32.60;79.20
6752;DHT22;3413;47.680;9.166;2023-08-12T16:12:59;32.60;79.20
6752;DHT22;3413;47.680;9.166;2023-08-12T16:18:01;32.60;79.00
6752;DHT22;3413;47.680;9.166;2023-08-12T16:23:04;32.60;78.90
6752;DHT22;3413;47.680;9.166;2023-08-12T16:28:05;32.70;78.90
6752;DHT22;3413;47.680;9.166;2023-08-12T16:33:07;32.60;78.80
6752;DHT22;3413;47.680;9.166;2023-08-12T16:38:09;32.50;78.80
6752;DHT22;3413;47.680;9.166;2023-08-12T16:43:11;32.50;78.80
6752;DHT22;3413;47.680;9.166;2023-08-12T16:48:13;32.40;78.90
6752;DHT22;3413;47.680;9.166;2023-08-12T16:53:15;32.40;79.00
6752;DHT22;3413;47.680;9.166;2023-08-12T16:58:17;32.30;79.20
6752;DHT22;3413;47.680;9.166;2023-08-12T17:03:19;32.10;79.20
6752;DHT22;3413;47.680;9.166;2023-08-12T17:08:21;32.20;79.30
6752;DHT22;3413;47.680;9.166;2023-08-12T17:13:23;32.10;79.30
6752;DHT22;3413;47.680;9.166;2023-08-12T17:18:25;32.00;79.30
6752;DHT22;3413;47.680;9.166;2023-08-12T17:23:27;31.90;79.30
6752;DHT22;3413;47.680;9.166;2023-08-12T17:28:29;32.00;79.10
6752;DHT22;3413;47.680;9.166;2023-08-12T17:33:31;32.00;79.10
6752;DHT22;3413;47.680;9.166;2023-08-12T17:38:33;31.90;79.00
6752;DHT22;3413;47.680;9.166;2023-08-12T17:43:35;32.00;79.10
6752;DHT22;3413;47.680;9.166;2023-08-12T17:48:39;31.90;78.90
6752;DHT22;3413;47.680;9.166;2023-08-12T17:53:43;32.00;79.00
6752;DHT22;3413;47.680;9.166;2023-08-12T17:58:45;32.00;79.00
6752;DHT22;3413;47.680;9.166;2023-08-12T18:03:47;32.10;79.10
6752;DHT22;3413;47.680;9.166;2023-08-12T18:08:49;32.20;79.20
6752;DHT22;3413;47.680;9.166;2023-08-12T18:13:51;32.30;79.20
6752;DHT22;3413;47.680;9.166;2023-08-12T18:18:53;32.30;79.00
6752;DHT22;3413;47.680;9.166;2023-08-12T18:23:55;32.20;79.10
6752;DHT22;3413;47.680;9.166;2023-08-12T18:28:56;32.10;79.10
6752;DHT22;3413;47.680;9.166;2023-08-12T18:33:59;32.10;79.10
6752;DHT22;3413;47.680;9.166;2023-08-12T18:39:01;32.10;79.00
6752;DHT22;3413;47.680;9.166;2023-08-12T18:44:03;32.00;78.90
6752;DHT22;3413;47.680;9.166;2023-08-12T18:49:05;32.00;79.00
6752;DHT22;3413;47.680;9.166;2023-08-12T18:54:07;31.90;79.00
6752;DHT22;3413;47.680;9.166;2023-08-12T18:59:09;31.70;79.00
6752;DHT22;3413;47.680;9.166;2023-08-12T19:04:11;31.60;79.00
6752;DHT22;3413;47.680;9.166;2023-08-12T19:09:14;31.40;79.20
6752;DHT22;3413;47.680;9.166;2023-08-12T19:14:18;31.30;79.20
6752;DHT22;3413;47.680;9.166;2023-08-12T19:19:19;31.20;79.10
6752;DHT22;3413;47.680;9.166;2023-08-12T19:24:21;31.20;79.10
6752;DHT22;3413;47.680;9.166;2023-08-12T19:29:26;31.10;79.10
6752;DHT22;3413;47.680;9.166;2023-08-12T19:34:28;30.90;79.20
6752;DHT22;3413;47.680;9.166;2023-08-12T19:39:33;30.80;79.30
6752;DHT22;3413;47.680;9.166;2023-08-12T19:44:35;30.60;79.40
6752;DHT22;3413;47.680;9.166;2023-08-12T19:49:37;30.60;79.50
6752;DHT22;3413;47.680;9.166;2023-08-12T19:54:39;30.50;79.60
6752;DHT22;3413;47.680;9.166;2023-08-12T19:59:40;30.40;79.60
6752;DHT22;3413;47.680;9.166;2023-08-12T20:04:43;30.40;79.60
6752;DHT22;3413;47.680;9.166;2023-08-12T20:09:45;30.40;79.60
6752;DHT22;3413;47.680;9.166;2023-08-12T20:14:47;30.40;79.60
6752;DHT22;3413;47.680;9.166;2023-08-12T20:19:49;30.40;79.70
6752;DHT22;3413;47.680;9.166;2023-08-12T20:24:51;30.30;79.70
6752;DHT22;3413;47.680;9.166;2023-08-12T20:29:53;30.20;79.60
6752;DHT22;3413;47.680;9.166;2023-08-12T20:34:56;30.20;79.80
6752;DHT22;3413;47.680;9.166;2023-08-12T20:39:58;30.10;79.80
6752;DHT22;3413;47.680;9.166;2023-08-12T20:45:00;30.10;79.60
6752;DHT22;3413;47.680;9.166;2023-08-12T20:50:02;29.90;79.90
6752;DHT22;3413;47.680;9.166;2023-08-12T20:55:04;29.80;80.00
6752;DHT22;3413;47.680;9.166;2023-08-12T21:00:08;29.50;80.00
6752;DHT22;3413;47.680;9.166;2023-08-12T21:05:10;29.40;80.10
6752;DHT22;3413;47.680;9.166;2023-08-12T21:10:12;29.40;80.10
6752;DHT22;3413;47.680;9.166;2023-08-12T21:15:14;29.40;80.20
6752;DHT22;3413;47.680;9.166;2023-08-12T21:20:16;29.40;80.20
6752;DHT22;3413;47.680;9.166;2023-08-12T21:25:18;29.30;80.20
6752;DHT22;3413;47.680;9.166;2023-08-12T21:30:20;29.10;80.20
6752;DHT22;3413;47.680;9.166;2023-08-12T21:35:22;29.10;80.40
6752;DHT22;3413;47.680;9.166;2023-08-12T21:40:24;29.00;80.40
6752;DHT22;3413;47.680;9.166;2023-08-12T21:45:26;28.90;80.40
6752;DHT22;3413;47.680;9.166;2023-08-12T21:50:29;28.80;80.40
6752;DHT22;3413;47.680;9.166;2023-08-12T21:55:31;28.60;80.40
6752;DHT22;3413;47.680;9.166;2023-08-12T22:00:33;28.40;80.60
6752;DHT22;3413;47.680;9.166;2023-08-12T22:05:35;28.30;80.60
6752;DHT22;3413;47.680;9.166;2023-08-12T22:10:37;28.20;80.70
6752;DHT22;3413;47.680;9.166;2023-08-12T22:15:39;28.00;80.90
6752;DHT22;3413;47.680;9.166;2023-08-12T22:20:41;27.70;80.90
6752;DHT22;3413;47.680;9.166;2023-08-12T22:25:42;27.70;80.90
6752;DHT22;3413;47.680;9.166;2023-08-12T22:30:46;27.70;81.00
6752;DHT22;3413;47.680;9.166;2023-08-12T22:35:48;27.70;81.00
6752;DHT22;3413;47.680;9.166;2023-08-12T22:40:50;27.70;81.00
6752;DHT22;3413;47.680;9.166;2023-08-12T22:45:52;27.70;81.10
6752;DHT22;3413;47.680;9.166;2023-08-12T22:50:54;27.60;81.20
6752;DHT22;3413;47.680;9.166;2023-08-12T22:55:57;27.50;81.20
6752;DHT22;3413;47.680;9.166;2023-08-12T23:00:59;27.50;81.30
6752;DHT22;3413;47.680;9.166;2023-08-12T23:06:01;27.40;81.50
6752;DHT22;3413;47.680;9.166;2023-08-12T23:11:04;27.40;81.60
6752;DHT22;3413;47.680;9.166;2023-08-12T23:16:06;27.30;81.70
6752;DHT22;3413;47.680;9.166;2023-08-12T23:21:08;27.20;81.90
6752;DHT22;3413;47.680;9.166;2023-08-12T23:26:10;27.20;82.00
6752;DHT22;3413;47.680;9.166;2023-08-12T23:31:12;27.20;82.00
6752;DHT22;3413;47.680;9.166;2023-08-12T23:36:14;27.30;82.10
6752;DHT22;3413;47.680;9.166;2023-08-12T23:41:16;27.30;82.00
6752;DHT22;3413;47.680;9.166;2023-08-12T23:46:18;27.40;82.10
6752;DHT22;3413;47.680;9.166;2023-08-12T23:51:20;27.40;82.10
6752;DHT22;3413;47.680;9.166;2023-08-12T23:56:22;27.40;82.20
